sensor_id;sensor_type;location;lat;lon;timestamp;P1;durP1;ratioP1;P2;durP2;ratioP2
52734;SDS011;38631;47.572;10.704;2023-09-12T00:00:42;10.07;;;7.13;;
52734;SDS011;38631;47.572;10.704;2023-09-12T00:03:08;7.65;;;6.80;;
52734;SDS011;38631;47.572;10.704;2023-09-12T00:05:33;9.57;;;6.90;;
52734;SDS011;38631;47.572;10.704;2023-09-12T00:07:58;8.52;;;7.22;;
52734;SDS011;38631;47.572;10.704;2023-09-12T00:10:24;7.15;;;6.22;;
52734;SDS011;38631;47.572;10.704;2023-09-12T00:12:50;7.88;;;6.63;;
52734;SDS011;38631;47.572;10.704;2023-09-12T00:15:15;8.82;;;7.22;;
52734;SDS011;38631;47.572;10.704;2023-09-12T00:17:41;8.75;;;6.90;;
52734;SDS011;38631;47.572;10.704;2023-09-12T00:20:06;7.78;;;6.18;;
52734;SDS011;38631;47.572;10.704;2023-09-12T00:22:33;7.82;;;6.47;;
52734;SDS011;38631;47.572;10.704;2023-09-12T00:24:58;8.27;;;6.75;;
52734;SDS011;38631;47.572;10.704;2023-09-12T00:27:23;8.85;;;7.45;;
52734;SDS011;38631;47.572;10.704;2023-09-12T00:29:49;8.52;;;6.75;;
52734;SDS011;38631;47.572;10.704;2023-09-12T00:32:14;8.25;;;6.30;;
52734;SDS011;38631;47.572;10.704;2023-09-12T00:34:39;9.27;;;7.05;;
52734;SDS011;38631;47.572;10.704;2023-09-12T00:37:05;8.70;;;7.22;;
52734;SDS011;38631;47.572;10.704;2023-09-12T00:39:30;7.97;;;6.15;;
52734;SDS011;38631;47.572;10.704;2023-09-12T00:41:56;8.25;;;6.35;;
52734;SDS011;38631;47.572;10.704;2023-09-12T00:44:21;11.30;;;7.47;;
52734;SDS011;38631;47.572;10.704;2023-09-12T00:46:46;7.63;;;6.80;;
52734;SDS011;38631;47.572;10.704;2023-09-12T00:49:14;8.75;;;7.13;;
52734;SDS011;38631;47.572;10.704;2023-09-12T00:51:42;9.60;;;7.40;;
52734;SDS011;38631;47.572;10.704;2023-09-12T00:54:09;8.43;;;6.90;;
52734;SDS011;38631;47.572;10.704;2023-09-12T00:56:35;9.00;;;6.70;;
52734;SDS011;38631;47.572;10.704;2023-09-12T00:59:01;9.27;;;7.35;;
52734;SDS011;38631;47.572;10.704;2023-09-12T01:01:27;8.50;;;6.68;;
52734;SDS011;38631;47.572;10.704;2023-09-12T01:03:54;9.88;;;7.03;;
52734;SDS011;38631;47.572;10.704;2023-09-12T01:06:21;8.90;;;7.60;;
52734;SDS011;38631;47.572;10.704;2023-09-12T01:08:48;8.00;;;7.20;;
52734;SDS011;38631;47.572;10.704;2023-09-12T01:11:14;8.55;;;7.28;;
52734;SDS011;38631;47.572;10.704;2023-09-12T01:13:39;7.53;;;6.68;;
52734;SDS011;38631;47.572;10.704;2023-09-12T01:16:05;9.27;;;6.70;;
52734;SDS011;38631;47.572;10.704;2023-09-12T01:18:31;9.23;;;7.70;;
52734;SDS011;38631;47.572;10.704;2023-09-12T01:30:03;7.53;;;6.68;;
52734;SDS011;38631;47.572;10.704;2023-09-12T01:32:31;9.05;;;7.63;;
52734;SDS011;38631;47.572;10.704;2023-09-12T01:34:58;7.85;;;6.88;;
52734;SDS011;38631;47.572;10.704;2023-09-12T01:37:24;7.80;;;6.45;;
52734;SDS011;38631;47.572;10.704;2023-09-12T01:39:49;8.75;;;7.10;;
52734;SDS011;38631;47.572;10.704;2023-09-12T01:42:16;7.78;;;6.72;;
52734;SDS011;38631;47.572;10.704;2023-09-12T01:44:44;7.80;;;6.33;;
52734;SDS011;38631;47.572;10.704;2023-09-12T01:47:10;9.25;;;6.60;;
52734;SDS011;38631;47.572;10.704;2023-09-12T01:49:37;9.57;;;7.38;;
52734;SDS011;38631;47.572;10.704;2023-09-12T01:52:07;9.75;;;7.30;;
52734;SDS011;38631;47.572;10.704;2023-09-12T01:54:34;7.95;;;6.75;;
52734;SDS011;38631;47.572;10.704;2023-09-12T01:56:59;9.15;;;7.28;;
52734;SDS011;38631;47.572;10.704;2023-09-12T01:59:26;8.65;;;7.25;;
52734;SDS011;38631;47.572;10.704;2023-09-12T02:01:52;8.82;;;7.30;;
52734;SDS011;38631;47.572;10.704;2023-09-12T02:04:18;8.98;;;7.28;;
52734;SDS011;38631;47.572;10.704;2023-09-12T02:06:43;8.35;;;6.72;;
52734;SDS011;38631;47.572;10.704;2023-09-12T02:09:08;8.52;;;7.50;;
52734;SDS011;38631;47.572;10.704;2023-09-12T02:11:34;8.15;;;6.60;;
52734;SDS011;38631;47.572;10.704;2023-09-12T02:13:59;10.85;;;8.00;;
52734;SDS011;38631;47.572;10.704;2023-09-12T02:16:25;9.18;;;7.38;;
52734;SDS011;38631;47.572;10.704;2023-09-12T02:18:50;8.57;;;7.00;;
52734;SDS011;38631;47.572;10.704;2023-09-12T02:21:15;9.20;;;7.13;;
52734;SDS011;38631;47.572;10.704;2023-09-12T02:23:41;8.13;;;7.20;;
52734;SDS011;38631;47.572;10.704;2023-09-12T02:26:07;8.95;;;7.10;;
52734;SDS011;38631;47.572;10.704;2023-09-12T02:28:32;7.80;;;7.00;;
52734;SDS011;38631;47.572;10.704;2023-09-12T02:30:57;9.80;;;6.70;;
52734;SDS011;38631;47.572;10.704;2023-09-12T02:33:23;9.50;;;7.20;;
52734;SDS011;38631;47.572;10.704;2023-09-12T02:35:48;8.63;;;7.38;;
52734;SDS011;38631;47.572;10.704;2023-09-12T02:38:14;8.10;;;6.70;;
52734;SDS011;38631;47.572;10.704;2023-09-12T02:40:39;9.57;;;7.50;;
52734;SDS011;38631;47.572;10.704;2023-09-12T02:43:04;9.13;;;7.13;;
52734;SDS011;38631;47.572;10.704;2023-09-12T02:45:30;10.05;;;7.30;;
52734;SDS011;38631;47.572;10.704;2023-09-12T02:47:55;8.77;;;6.85;;
52734;SDS011;38631;47.572;10.704;2023-09-12T02:50:21;8.77;;;6.78;;
52734;SDS011;38631;47.572;10.704;2023-09-12T02:52:46;9.27;;;7.30;;
52734;SDS011;38631;47.572;10.704;2023-09-12T02:55:12;8.55;;;7.22;;
52734;SDS011;38631;47.572;10.704;2023-09-12T02:57:37;8.73;;;7.07;;
52734;SDS011;38631;47.572;10.704;2023-09-12T03:00:03;10.50;;;7.20;;
52734;SDS011;38631;47.572;10.704;2023-09-12T03:02:31;10.87;;;7.13;;
52734;SDS011;38631;47.572;10.704;2023-09-12T03:04:57;8.85;;;6.90;;
52734;SDS011;38631;47.572;10.704;2023-09-12T03:07:22;8.77;;;7.40;;
52734;SDS011;38631;47.572;10.704;2023-09-12T03:09:48;8.35;;;7.32;;
52734;SDS011;38631;47.572;10.704;2023-09-12T03:12:14;10.70;;;7.40;;
52734;SDS011;38631;47.572;10.704;2023-09-12T03:14:40;13.45;;;8.45;;
52734;SDS011;38631;47.572;10.704;2023-09-12T03:17:05;9.10;;;7.13;;
52734;SDS011;38631;47.572;10.704;2023-09-12T03:19:31;11.18;;;7.75;;
52734;SDS011;38631;47.572;10.704;2023-09-12T03:21:56;9.57;;;7.28;;
52734;SDS011;38631;47.572;10.704;2023-09-12T03:24:22;8.43;;;7.05;;
52734;SDS011;38631;47.572;10.704;2023-09-12T03:26:49;9.25;;;6.50;;
52734;SDS011;38631;47.572;10.704;2023-09-12T03:29:15;9.20;;;7.43;;
52734;SDS011;38631;47.572;10.704;2023-09-12T03:31:40;9.32;;;7.18;;
52734;SDS011;38631;47.572;10.704;2023-09-12T03:34:05;10.40;;;7.18;;
52734;SDS011;38631;47.572;10.704;2023-09-12T03:36:31;8.15;;;7.07;;
52734;SDS011;38631;47.572;10.704;2023-09-12T03:38:56;9.43;;;7.70;;
52734;SDS011;38631;47.572;10.704;2023-09-12T03:41:22;8.77;;;7.40;;
52734;SDS011;38631;47.572;10.704;2023-09-12T03:43:50;9.45;;;7.78;;
52734;SDS011;38631;47.572;10.704;2023-09-12T03:46:17;10.38;;;7.07;;
52734;SDS011;38631;47.572;10.704;2023-09-12T03:48:43;8.95;;;7.32;;
52734;SDS011;38631;47.572;10.704;2023-09-12T03:51:08;9.27;;;7.72;;
52734;SDS011;38631;47.572;10.704;2023-09-12T03:53:33;8.93;;;7.18;;
52734;SDS011;38631;47.572;10.704;2023-09-12T03:55:59;8.57;;;7.05;;
52734;SDS011;38631;47.572;10.704;2023-09-12T03:58:24;7.57;;;6.75;;
52734;SDS011;38631;47.572;10.704;2023-09-12T04:00:50;9.75;;;7.10;;
52734;SDS011;38631;47.572;10.704;2023-09-12T04:03:15;9.93;;;7.47;;
52734;SDS011;38631;47.572;10.704;2023-09-12T04:05:41;10.07;;;7.30;;
52734;SDS011;38631;47.572;10.704;2023-09-12T04:08:06;9.93;;;7.70;;
52734;SDS011;38631;47.572;10.704;2023-09-12T04:10:32;10.32;;;8.38;;
52734;SDS011;38631;47.572;10.704;2023-09-12T04:12:57;9.13;;;7.82;;
52734;SDS011;38631;47.572;10.704;2023-09-12T04:15:23;9.25;;;7.43;;
52734;SDS011;38631;47.572;10.704;2023-09-12T04:17:49;7.43;;;6.15;;
52734;SDS011;38631;47.572;10.704;2023-09-12T04:20:15;9.07;;;7.50;;
52734;SDS011;38631;47.572;10.704;2023-09-12T04:22:44;8.13;;;7.20;;
52734;SDS011;38631;47.572;10.704;2023-09-12T04:25:10;11.27;;;7.78;;
52734;SDS011;38631;47.572;10.704;2023-09-12T04:27:36;8.77;;;6.43;;
52734;SDS011;38631;47.572;10.704;2023-09-12T04:30:02;9.00;;;7.10;;
52734;SDS011;38631;47.572;10.704;2023-09-12T04:32:28;9.35;;;7.45;;
52734;SDS011;38631;47.572;10.704;2023-09-12T04:34:54;8.57;;;7.68;;
52734;SDS011;38631;47.572;10.704;2023-09-12T04:37:20;8.88;;;6.85;;
52734;SDS011;38631;47.572;10.704;2023-09-12T04:39:46;8.88;;;7.10;;
52734;SDS011;38631;47.572;10.704;2023-09-12T04:42:13;8.40;;;6.60;;
52734;SDS011;38631;47.572;10.704;2023-09-12T04:44:39;9.68;;;8.05;;
52734;SDS011;38631;47.572;10.704;2023-09-12T04:47:06;7.82;;;7.03;;
52734;SDS011;38631;47.572;10.704;2023-09-12T04:49:32;10.05;;;7.57;;
52734;SDS011;38631;47.572;10.704;2023-09-12T04:51:58;10.73;;;8.10;;
52734;SDS011;38631;47.572;10.704;2023-09-12T04:54:24;9.38;;;6.90;;
52734;SDS011;38631;47.572;10.704;2023-09-12T04:56:49;10.43;;;7.13;;
52734;SDS011;38631;47.572;10.704;2023-09-12T04:59:15;9.70;;;6.70;;
52734;SDS011;38631;47.572;10.704;2023-09-12T05:01:41;9.02;;;7.55;;
52734;SDS011;38631;47.572;10.704;2023-09-12T05:04:07;10.15;;;6.47;;
52734;SDS011;38631;47.572;10.704;2023-09-12T05:06:33;10.68;;;6.90;;
52734;SDS011;38631;47.572;10.704;2023-09-12T05:09:00;9.27;;;6.93;;
52734;SDS011;38631;47.572;10.704;2023-09-12T05:11:26;8.52;;;7.53;;
52734;SDS011;38631;47.572;10.704;2023-09-12T05:13:52;8.13;;;6.72;;
52734;SDS011;38631;47.572;10.704;2023-09-12T05:16:18;9.77;;;7.63;;
52734;SDS011;38631;47.572;10.704;2023-09-12T05:18:45;7.78;;;6.95;;
52734;SDS011;38631;47.572;10.704;2023-09-12T05:21:11;9.75;;;7.55;;
52734;SDS011;38631;47.572;10.704;2023-09-12T05:23:37;9.38;;;7.97;;
52734;SDS011;38631;47.572;10.704;2023-09-12T05:26:02;7.40;;;6.20;;
52734;SDS011;38631;47.572;10.704;2023-09-12T05:28:28;8.90;;;7.20;;
52734;SDS011;38631;47.572;10.704;2023-09-12T05:30:54;8.98;;;6.60;;
52734;SDS011;38631;47.572;10.704;2023-09-12T05:33:19;12.05;;;7.85;;
52734;SDS011;38631;47.572;10.704;2023-09-12T05:35:45;10.43;;;7.68;;
52734;SDS011;38631;47.572;10.704;2023-09-12T05:38:11;11.05;;;8.02;;
52734;SDS011;38631;47.572;10.704;2023-09-12T05:40:37;10.77;;;8.23;;
52734;SDS011;38631;47.572;10.704;2023-09-12T05:43:03;9.68;;;7.72;;
52734;SDS011;38631;47.572;10.704;2023-09-12T05:45:29;9.73;;;7.53;;
52734;SDS011;38631;47.572;10.704;2023-09-12T05:47:57;9.63;;;7.05;;
52734;SDS011;38631;47.572;10.704;2023-09-12T05:50:23;9.38;;;7.70;;
52734;SDS011;38631;47.572;10.704;2023-09-12T05:52:49;13.52;;;7.55;;
52734;SDS011;38631;47.572;10.704;2023-09-12T05:55:16;8.93;;;8.02;;
52734;SDS011;38631;47.572;10.704;2023-09-12T05:57:42;12.27;;;7.47;;
52734;SDS011;38631;47.572;10.704;2023-09-12T06:00:10;9.60;;;7.70;;
52734;SDS011;38631;47.572;10.704;2023-09-12T06:02:39;11.05;;;7.75;;
52734;SDS011;38631;47.572;10.704;2023-09-12T06:07:32;11.90;;;8.68;;
52734;SDS011;38631;47.572;10.704;2023-09-12T06:09:58;9.40;;;7.80;;
52734;SDS011;38631;47.572;10.704;2023-09-12T06:12:24;9.90;;;7.28;;
52734;SDS011;38631;47.572;10.704;2023-09-12T06:14:50;10.30;;;8.40;;
52734;SDS011;38631;47.572;10.704;2023-09-12T06:17:18;10.30;;;7.38;;
52734;SDS011;38631;47.572;10.704;2023-09-12T06:19:43;10.52;;;7.63;;
52734;SDS011;38631;47.572;10.704;2023-09-12T06:22:09;10.18;;;8.15;;
52734;SDS011;38631;47.572;10.704;2023-09-12T06:24:35;12.45;;;7.85;;
52734;SDS011;38631;47.572;10.704;2023-09-12T06:27:01;12.18;;;7.53;;
52734;SDS011;38631;47.572;10.704;2023-09-12T06:29:29;10.07;;;7.65;;
52734;SDS011;38631;47.572;10.704;2023-09-12T06:31:55;10.05;;;7.50;;
52734;SDS011;38631;47.572;10.704;2023-09-12T06:34:22;12.40;;;8.27;;
52734;SDS011;38631;47.572;10.704;2023-09-12T06:36:48;9.32;;;7.30;;
52734;SDS011;38631;47.572;10.704;2023-09-12T06:39:14;8.18;;;7.32;;
52734;SDS011;38631;47.572;10.704;2023-09-12T06:41:40;14.60;;;7.18;;
52734;SDS011;38631;47.572;10.704;2023-09-12T06:44:05;11.05;;;7.72;;
52734;SDS011;38631;47.572;10.704;2023-09-12T06:46:32;8.10;;;6.90;;
52734;SDS011;38631;47.572;10.704;2023-09-12T06:49:01;11.20;;;6.88;;
52734;SDS011;38631;47.572;10.704;2023-09-12T06:51:28;9.00;;;7.57;;
52734;SDS011;38631;47.572;10.704;2023-09-12T06:53:54;13.23;;;8.32;;
52734;SDS011;38631;47.572;10.704;2023-09-12T06:56:19;10.85;;;7.22;;
52734;SDS011;38631;47.572;10.704;2023-09-12T06:58:45;8.35;;;7.07;;
52734;SDS011;38631;47.572;10.704;2023-09-12T07:01:10;8.20;;;7.25;;
52734;SDS011;38631;47.572;10.704;2023-09-12T07:03:36;8.98;;;6.72;;
52734;SDS011;38631;47.572;10.704;2023-09-12T07:06:02;8.10;;;6.68;;
52734;SDS011;38631;47.572;10.704;2023-09-12T07:08:29;9.27;;;6.85;;
52734;SDS011;38631;47.572;10.704;2023-09-12T07:10:55;8.65;;;6.72;;
52734;SDS011;38631;47.572;10.704;2023-09-12T07:13:22;8.57;;;7.68;;
52734;SDS011;38631;47.572;10.704;2023-09-12T07:15:50;8.05;;;6.60;;
52734;SDS011;38631;47.572;10.704;2023-09-12T07:18:16;9.15;;;6.72;;
52734;SDS011;38631;47.572;10.704;2023-09-12T07:20:43;10.50;;;7.53;;
52734;SDS011;38631;47.572;10.704;2023-09-12T07:23:09;10.13;;;7.38;;
52734;SDS011;38631;47.572;10.704;2023-09-12T07:25:38;11.65;;;7.65;;
52734;SDS011;38631;47.572;10.704;2023-09-12T07:28:06;10.63;;;7.25;;
52734;SDS011;38631;47.572;10.704;2023-09-12T07:30:32;10.70;;;7.75;;
52734;SDS011;38631;47.572;10.704;2023-09-12T07:32:58;9.32;;;7.30;;
52734;SDS011;38631;47.572;10.704;2023-09-12T07:35:24;11.15;;;6.78;;
52734;SDS011;38631;47.572;10.704;2023-09-12T07:37:50;10.75;;;7.72;;
52734;SDS011;38631;47.572;10.704;2023-09-12T07:40:17;7.68;;;6.00;;
52734;SDS011;38631;47.572;10.704;2023-09-12T07:42:42;8.80;;;6.82;;
52734;SDS011;38631;47.572;10.704;2023-09-12T07:45:08;10.07;;;7.05;;
52734;SDS011;38631;47.572;10.704;2023-09-12T07:47:34;10.32;;;7.30;;
52734;SDS011;38631;47.572;10.704;2023-09-12T07:50:00;11.57;;;8.02;;
52734;SDS011;38631;47.572;10.704;2023-09-12T07:52:26;9.80;;;6.53;;
52734;SDS011;38631;47.572;10.704;2023-09-12T07:54:52;8.02;;;6.65;;
52734;SDS011;38631;47.572;10.704;2023-09-12T07:59:47;8.25;;;7.07;;
52734;SDS011;38631;47.572;10.704;2023-09-12T08:02:13;10.35;;;6.95;;
52734;SDS011;38631;47.572;10.704;2023-09-12T08:04:39;10.15;;;6.80;;
52734;SDS011;38631;47.572;10.704;2023-09-12T08:07:04;9.32;;;6.72;;
52734;SDS011;38631;47.572;10.704;2023-09-12T08:09:49;9.93;;;7.00;;
52734;SDS011;38631;47.572;10.704;2023-09-12T08:12:24;9.05;;;6.47;;
52734;SDS011;38631;47.572;10.704;2023-09-12T08:14:51;11.50;;;7.28;;
52734;SDS011;38631;47.572;10.704;2023-09-12T08:17:17;8.85;;;6.95;;
52734;SDS011;38631;47.572;10.704;2023-09-12T08:19:43;8.85;;;6.50;;
52734;SDS011;38631;47.572;10.704;2023-09-12T08:22:09;9.57;;;7.07;;
52734;SDS011;38631;47.572;10.704;2023-09-12T08:24:36;9.10;;;6.97;;
52734;SDS011;38631;47.572;10.704;2023-09-12T08:27:02;8.57;;;6.53;;
52734;SDS011;38631;47.572;10.704;2023-09-12T08:29:28;10.23;;;6.70;;
52734;SDS011;38631;47.572;10.704;2023-09-12T08:31:54;9.98;;;7.10;;
52734;SDS011;38631;47.572;10.704;2023-09-12T08:34:20;8.95;;;6.10;;
52734;SDS011;38631;47.572;10.704;2023-09-12T08:36:45;9.93;;;6.60;;
52734;SDS011;38631;47.572;10.704;2023-09-12T08:39:13;8.60;;;6.72;;
52734;SDS011;38631;47.572;10.704;2023-09-12T08:41:41;7.13;;;6.22;;
52734;SDS011;38631;47.572;10.704;2023-09-12T08:44:06;7.03;;;6.15;;
52734;SDS011;38631;47.572;10.704;2023-09-12T08:46:33;10.38;;;6.57;;
52734;SDS011;38631;47.572;10.704;2023-09-12T08:48:59;9.10;;;6.97;;
52734;SDS011;38631;47.572;10.704;2023-09-12T08:51:25;8.98;;;7.00;;
52734;SDS011;38631;47.572;10.704;2023-09-12T08:53:51;9.57;;;7.10;;
52734;SDS011;38631;47.572;10.704;2023-09-12T08:56:17;9.15;;;6.38;;
52734;SDS011;38631;47.572;10.704;2023-09-12T08:58:43;10.52;;;6.40;;
52734;SDS011;38631;47.572;10.704;2023-09-12T09:01:10;10.65;;;7.55;;
52734;SDS011;38631;47.572;10.704;2023-09-12T09:03:39;11.73;;;6.90;;
52734;SDS011;38631;47.572;10.704;2023-09-12T09:06:07;9.77;;;6.35;;
52734;SDS011;38631;47.572;10.704;2023-09-12T09:08:34;9.45;;;6.38;;
52734;SDS011;38631;47.572;10.704;2023-09-12T09:11:00;12.27;;;6.80;;
52734;SDS011;38631;47.572;10.704;2023-09-12T09:13:31;9.07;;;6.07;;
52734;SDS011;38631;47.572;10.704;2023-09-12T09:16:15;8.23;;;6.32;;
52734;SDS011;38631;47.572;10.704;2023-09-12T09:19:03;9.77;;;6.43;;
52734;SDS011;38631;47.572;10.704;2023-09-12T09:21:34;11.52;;;6.22;;
52734;SDS011;38631;47.572;10.704;2023-09-12T09:24:02;9.30;;;6.07;;
52734;SDS011;38631;47.572;10.704;2023-09-12T09:29:15;14.52;;;6.78;;
52734;SDS011;38631;47.572;10.704;2023-09-12T09:31:42;10.77;;;6.63;;
52734;SDS011;38631;47.572;10.704;2023-09-12T09:34:16;13.52;;;6.68;;
52734;SDS011;38631;47.572;10.704;2023-09-12T09:36:53;12.25;;;6.40;;
52734;SDS011;38631;47.572;10.704;2023-09-12T09:39:23;7.85;;;6.00;;
52734;SDS011;38631;47.572;10.704;2023-09-12T09:41:50;11.98;;;6.70;;
52734;SDS011;38631;47.572;10.704;2023-09-12T09:44:17;7.65;;;5.90;;
52734;SDS011;38631;47.572;10.704;2023-09-12T09:46:43;8.00;;;5.78;;
52734;SDS011;38631;47.572;10.704;2023-09-12T09:49:15;9.77;;;6.35;;
52734;SDS011;38631;47.572;10.704;2023-09-12T09:51:43;14.10;;;6.15;;
52734;SDS011;38631;47.572;10.704;2023-09-12T09:54:09;8.25;;;5.78;;
52734;SDS011;38631;47.572;10.704;2023-09-12T09:56:46;7.28;;;5.88;;
52734;SDS011;38631;47.572;10.704;2023-09-12T09:59:21;8.40;;;6.55;;
52734;SDS011;38631;47.572;10.704;2023-09-12T10:01:48;13.23;;;6.28;;
52734;SDS011;38631;47.572;10.704;2023-09-12T10:04:15;10.20;;;6.40;;
52734;SDS011;38631;47.572;10.704;2023-09-12T10:06:44;8.88;;;7.00;;
52734;SDS011;38631;47.572;10.704;2023-09-12T10:09:11;12.32;;;6.05;;
52734;SDS011;38631;47.572;10.704;2023-09-12T10:11:39;8.65;;;6.43;;
52734;SDS011;38631;47.572;10.704;2023-09-12T10:14:05;8.30;;;5.70;;
52734;SDS011;38631;47.572;10.704;2023-09-12T10:16:35;7.28;;;5.88;;
52734;SDS011;38631;47.572;10.704;2023-09-12T10:19:07;6.95;;;5.53;;
52734;SDS011;38631;47.572;10.704;2023-09-12T10:21:49;9.13;;;5.63;;
52734;SDS011;38631;47.572;10.704;2023-09-12T10:24:18;6.80;;;5.72;;
52734;SDS011;38631;47.572;10.704;2023-09-12T10:26:46;6.90;;;5.43;;
52734;SDS011;38631;47.572;10.704;2023-09-12T10:29:14;7.10;;;5.97;;
52734;SDS011;38631;47.572;10.704;2023-09-12T10:31:40;6.90;;;5.00;;
52734;SDS011;38631;47.572;10.704;2023-09-12T10:34:06;7.57;;;5.95;;
52734;SDS011;38631;47.572;10.704;2023-09-12T10:36:39;9.80;;;5.55;;
52734;SDS011;38631;47.572;10.704;2023-09-12T10:39:06;7.15;;;5.85;;
52734;SDS011;38631;47.572;10.704;2023-09-12T10:41:33;7.28;;;5.22;;
52734;SDS011;38631;47.572;10.704;2023-09-12T10:44:02;8.68;;;5.75;;
52734;SDS011;38631;47.572;10.704;2023-09-12T10:46:40;7.38;;;5.40;;
52734;SDS011;38631;47.572;10.704;2023-09-12T10:49:09;7.47;;;5.80;;
52734;SDS011;38631;47.572;10.704;2023-09-12T10:51:38;7.38;;;5.82;;
52734;SDS011;38631;47.572;10.704;2023-09-12T10:54:05;7.10;;;5.55;;
52734;SDS011;38631;47.572;10.704;2023-09-12T10:56:33;8.52;;;5.38;;
52734;SDS011;38631;47.572;10.704;2023-09-12T11:01:29;8.48;;;4.97;;
52734;SDS011;38631;47.572;10.704;2023-09-12T11:03:55;7.18;;;5.45;;
52734;SDS011;38631;47.572;10.704;2023-09-12T11:06:28;7.13;;;5.00;;
52734;SDS011;38631;47.572;10.704;2023-09-12T11:11:38;6.18;;;5.00;;
52734;SDS011;38631;47.572;10.704;2023-09-12T11:14:04;8.30;;;4.72;;
52734;SDS011;38631;47.572;10.704;2023-09-12T11:16:31;8.90;;;5.40;;
52734;SDS011;38631;47.572;10.704;2023-09-12T11:21:47;9.32;;;5.28;;
52734;SDS011;38631;47.572;10.704;2023-09-12T11:27:05;8.95;;;5.07;;
52734;SDS011;38631;47.572;10.704;2023-09-12T11:29:36;8.77;;;5.25;;
52734;SDS011;38631;47.572;10.704;2023-09-12T11:32:06;6.25;;;4.97;;
52734;SDS011;38631;47.572;10.704;2023-09-12T11:34:38;7.47;;;5.63;;
52734;SDS011;38631;47.572;10.704;2023-09-12T11:37:10;8.05;;;5.10;;
52734;SDS011;38631;47.572;10.704;2023-09-12T11:39:50;6.03;;;4.80;;
52734;SDS011;38631;47.572;10.704;2023-09-12T11:42:17;7.47;;;5.00;;
52734;SDS011;38631;47.572;10.704;2023-09-12T11:44:43;7.00;;;5.88;;
52734;SDS011;38631;47.572;10.704;2023-09-12T11:47:12;7.43;;;5.43;;
52734;SDS011;38631;47.572;10.704;2023-09-12T11:49:41;8.93;;;6.45;;
52734;SDS011;38631;47.572;10.704;2023-09-12T11:52:13;5.80;;;4.82;;
52734;SDS011;38631;47.572;10.704;2023-09-12T11:54:44;7.75;;;5.40;;
52734;SDS011;38631;47.572;10.704;2023-09-12T11:57:13;9.85;;;5.40;;
52734;SDS011;38631;47.572;10.704;2023-09-12T11:59:40;6.85;;;5.85;;
52734;SDS011;38631;47.572;10.704;2023-09-12T12:02:10;9.80;;;5.60;;
52734;SDS011;38631;47.572;10.704;2023-09-12T12:04:36;7.22;;;5.38;;
52734;SDS011;38631;47.572;10.704;2023-09-12T12:07:03;7.75;;;5.45;;
52734;SDS011;38631;47.572;10.704;2023-09-12T12:09:29;8.05;;;5.63;;
52734;SDS011;38631;47.572;10.704;2023-09-12T12:11:55;8.10;;;5.03;;
52734;SDS011;38631;47.572;10.704;2023-09-12T12:14:24;7.85;;;5.93;;
52734;SDS011;38631;47.572;10.704;2023-09-12T12:16:51;9.00;;;6.20;;
52734;SDS011;38631;47.572;10.704;2023-09-12T12:19:17;8.23;;;5.63;;
52734;SDS011;38631;47.572;10.704;2023-09-12T12:21:43;8.65;;;5.82;;
52734;SDS011;38631;47.572;10.704;2023-09-12T12:24:13;7.07;;;5.55;;
52734;SDS011;38631;47.572;10.704;2023-09-12T12:26:42;6.60;;;5.35;;
52734;SDS011;38631;47.572;10.704;2023-09-12T12:29:09;8.18;;;5.50;;
52734;SDS011;38631;47.572;10.704;2023-09-12T12:31:36;8.02;;;5.60;;
52734;SDS011;38631;47.572;10.704;2023-09-12T12:34:02;8.38;;;5.60;;
52734;SDS011;38631;47.572;10.704;2023-09-12T12:36:28;9.55;;;6.80;;
52734;SDS011;38631;47.572;10.704;2023-09-12T12:38:54;9.95;;;5.85;;
52734;SDS011;38631;47.572;10.704;2023-09-12T12:41:23;7.95;;;5.70;;
52734;SDS011;38631;47.572;10.704;2023-09-12T12:43:51;9.13;;;5.78;;
52734;SDS011;38631;47.572;10.704;2023-09-12T12:46:17;7.10;;;6.10;;
52734;SDS011;38631;47.572;10.704;2023-09-12T12:48:44;7.45;;;5.45;;
52734;SDS011;38631;47.572;10.704;2023-09-12T12:51:17;8.30;;;5.78;;
52734;SDS011;38631;47.572;10.704;2023-09-12T12:53:45;6.47;;;4.97;;
52734;SDS011;38631;47.572;10.704;2023-09-12T12:56:19;8.15;;;5.28;;
52734;SDS011;38631;47.572;10.704;2023-09-12T12:58:56;7.78;;;6.05;;
52734;SDS011;38631;47.572;10.704;2023-09-12T13:01:27;8.32;;;5.88;;
52734;SDS011;38631;47.572;10.704;2023-09-12T13:03:52;6.97;;;4.95;;
52734;SDS011;38631;47.572;10.704;2023-09-12T13:06:19;6.57;;;5.30;;
52734;SDS011;38631;47.572;10.704;2023-09-12T13:08:45;6.57;;;5.28;;
52734;SDS011;38631;47.572;10.704;2023-09-12T13:11:12;6.35;;;4.90;;
52734;SDS011;38631;47.572;10.704;2023-09-12T13:13:39;8.18;;;5.70;;
52734;SDS011;38631;47.572;10.704;2023-09-12T13:16:05;6.60;;;5.18;;
52734;SDS011;38631;47.572;10.704;2023-09-12T13:18:34;6.20;;;5.33;;
52734;SDS011;38631;47.572;10.704;2023-09-12T13:21:00;8.25;;;5.22;;
52734;SDS011;38631;47.572;10.704;2023-09-12T13:23:26;8.85;;;5.47;;
52734;SDS011;38631;47.572;10.704;2023-09-12T13:25:52;5.95;;;5.05;;
52734;SDS011;38631;47.572;10.704;2023-09-12T13:28:18;7.82;;;5.03;;
52734;SDS011;38631;47.572;10.704;2023-09-12T13:30:44;6.03;;;5.43;;
52734;SDS011;38631;47.572;10.704;2023-09-12T13:33:10;7.20;;;4.95;;
52734;SDS011;38631;47.572;10.704;2023-09-12T13:35:36;6.10;;;4.85;;
52734;SDS011;38631;47.572;10.704;2023-09-12T13:38:02;7.80;;;5.25;;
52734;SDS011;38631;47.572;10.704;2023-09-12T13:40:34;6.65;;;5.32;;
52734;SDS011;38631;47.572;10.704;2023-09-12T13:43:03;5.95;;;5.05;;
52734;SDS011;38631;47.572;10.704;2023-09-12T13:45:29;9.27;;;5.47;;
52734;SDS011;38631;47.572;10.704;2023-09-12T13:47:55;7.55;;;5.05;;
52734;SDS011;38631;47.572;10.704;2023-09-12T13:50:20;7.82;;;5.65;;
52734;SDS011;38631;47.572;10.704;2023-09-12T13:52:45;11.70;;;5.38;;
52734;SDS011;38631;47.572;10.704;2023-09-12T13:55:11;7.43;;;6.07;;
52734;SDS011;38631;47.572;10.704;2023-09-12T13:57:39;7.38;;;4.95;;
52734;SDS011;38631;47.572;10.704;2023-09-12T14:00:05;6.75;;;5.43;;
52734;SDS011;38631;47.572;10.704;2023-09-12T14:02:31;7.22;;;5.88;;
52734;SDS011;38631;47.572;10.704;2023-09-12T14:04:57;8.02;;;6.38;;
52734;SDS011;38631;47.572;10.704;2023-09-12T14:07:22;6.35;;;5.38;;
52734;SDS011;38631;47.572;10.704;2023-09-12T14:09:48;9.75;;;6.43;;
52734;SDS011;38631;47.572;10.704;2023-09-12T14:12:14;8.45;;;5.60;;
52734;SDS011;38631;47.572;10.704;2023-09-12T14:14:40;8.25;;;5.78;;
52734;SDS011;38631;47.572;10.704;2023-09-12T14:17:06;9.52;;;5.88;;
52734;SDS011;38631;47.572;10.704;2023-09-12T14:19:31;7.00;;;5.70;;
52734;SDS011;38631;47.572;10.704;2023-09-12T14:21:57;6.05;;;5.22;;
52734;SDS011;38631;47.572;10.704;2023-09-12T14:24:22;6.40;;;5.32;;
52734;SDS011;38631;47.572;10.704;2023-09-12T14:26:48;6.90;;;5.22;;
52734;SDS011;38631;47.572;10.704;2023-09-12T14:29:14;7.90;;;5.43;;
52734;SDS011;38631;47.572;10.704;2023-09-12T14:31:40;7.10;;;5.13;;
52734;SDS011;38631;47.572;10.704;2023-09-12T14:34:14;6.80;;;5.80;;
52734;SDS011;38631;47.572;10.704;2023-09-12T14:36:39;7.72;;;5.45;;
52734;SDS011;38631;47.572;10.704;2023-09-12T14:39:05;9.15;;;5.80;;
52734;SDS011;38631;47.572;10.704;2023-09-12T14:41:31;6.00;;;5.00;;
52734;SDS011;38631;47.572;10.704;2023-09-12T14:43:57;6.13;;;5.43;;
52734;SDS011;38631;47.572;10.704;2023-09-12T14:46:22;8.00;;;5.78;;
52734;SDS011;38631;47.572;10.704;2023-09-12T14:48:48;6.10;;;5.18;;
52734;SDS011;38631;47.572;10.704;2023-09-12T14:51:13;10.43;;;6.65;;
52734;SDS011;38631;47.572;10.704;2023-09-12T14:53:39;6.45;;;5.60;;
52734;SDS011;38631;47.572;10.704;2023-09-12T14:56:09;9.20;;;5.80;;